Time,TemperatureF,DewpointF,PressureIn,WindDirection,WindDirectionDegrees,WindSpeedMPH,WindSpeedGustMPH,Humidity,HourlyPrecipIn,Conditions,Clouds,dailyrainin,SoftwareType,DateUTC
2014-08-22 00:01:00,59.6,54.1,30.00,ENE,59,4.0,6.0,82,0.00,,---,0.00,VWS V14.01,2014-08-22 07:01:00,
2014-08-22 00:06:00,59.5,54.0,30.00,ENE,78,3.0,5.0,82,0.00,,---,0.00,VWS V14.01,2014-08-22 07:06:00,
2014-08-22 00:11:00,59.4,53.9,30.00,East,88,3.0,5.0,82,0.00,,---,0.00,VWS V14.01,2014-08-22 07:11:00,
2014-08-22 00:16:00,59.3,54.2,30.00,ESE,103,2.0,5.0,83,0.00,,---,0.00,VWS V14.01,2014-08-22 07:16:00,
2014-08-22 00:21:00,59.3,54.2,30.00,East,98,2.0,2.0,83,0.00,,---,0.00,VWS V14.01,2014-08-22 07:21:00,
2014-08-22 00:26:00,59.5,54.3,30.00,East,96,4.0,5.0,83,0.00,,---,0.00,VWS V14.01,2014-08-22 07:26:00,
2014-08-22 00:31:00,59.4,54.2,30.00,ENE,78,3.0,5.0,83,0.00,,---,0.00,VWS V14.01,2014-08-22 07:31:00,
2014-08-22 00:36:00,59.4,54.2,30.00,East,94,2.0,4.0,83,0.00,,---,0.00,VWS V14.01,2014-08-22 07:36:00,
2014-08-22 00:41:00,59.4,53.6,30.00,East,101,4.0,5.0,81,0.00,,---,0.00,VWS V14.01,2014-08-22 07:41:00,
2014-08-22 00:46:00,59.5,54.0,30.00,East,100,5.0,6.0,82,0.00,,---,0.00,VWS V14.01,2014-08-22 07:46:00,
2014-08-22 00:51:00,59.5,54.3,30.00,ENE,63,5.0,6.0,83,0.00,,---,0.00,VWS V14.01,2014-08-22 07:51:00,
2014-08-22 00:56:00,59.4,54.6,30.00,ENE,57,6.0,6.0,84,0.00,,---,0.00,VWS V14.01,2014-08-22 07:56:00,
2014-08-22 01:01:00,59.2,54.4,30.00,East,85,5.0,6.0,84,0.00,,---,0.00,VWS V14.01,2014-08-22 08:01:00,
2014-08-22 01:06:00,59.3,54.2,30.00,ESE,102,8.0,9.0,83,0.00,,---,0.00,VWS V14.01,2014-08-22 08:06:00,
2014-08-22 01:11:00,59.3,54.2,30.00,East,90,6.0,9.0,83,0.00,,---,0.00,VWS V14.01,2014-08-22 08:11:00,
2014-08-22 01:16:00,59.4,53.9,30.00,East,100,6.0,9.0,82,0.00,,---,0.00,VWS V14.01,2014-08-22 08:16:00,
2014-08-22 01:21:00,59.4,54.2,30.00,East,88,5.0,8.0,83,0.00,,---,0.00,VWS V14.01,2014-08-22 08:21:00,
2014-08-22 01:26:00,59.5,54.3,30.00,East,90,7.0,8.0,83,0.00,,---,0.00,VWS V14.01,2014-08-22 08:26:00,
2014-08-22 01:31:00,59.5,54.3,30.00,East,93,7.0,8.0,83,0.00,,---,0.00,VWS V14.01,2014-08-22 08:31:00,
2014-08-22 01:36:00,59.4,54.2,30.00,East,101,7.0,8.0,83,0.00,,---,0.00,VWS V14.01,2014-08-22 08:36:00,
2014-08-22 01:41:00,59.4,54.2,30.00,ESE,107,7.0,8.0,83,0.00,,---,0.00,VWS V14.01,2014-08-22 08:41:00,
2014-08-22 01:46:00,59.4,54.2,30.01,East,92,6.0,8.0,83,0.00,,---,0.00,VWS V14.01,2014-08-22 08:46:00,
2014-08-22 01:51:00,59.4,54.2,30.00,East,96,6.0,9.0,83,0.00,,---,0.00,VWS V14.01,2014-08-22 08:51:00,
2014-08-22 01:56:00,59.3,54.2,30.01,East,97,8.0,9.0,83,0.00,,---,0.00,VWS V14.01,2014-08-22 08:56:00,
2014-08-22 02:01:00,59.2,54.0,30.01,East,101,6.0,9.0,83,0.00,,---,0.00,VWS V14.01,2014-08-22 09:01:00,
2014-08-22 02:06:00,59.1,54.0,30.01,East,96,7.0,8.0,83,0.00,,---,0.00,VWS V14.01,2014-08-22 09:06:00,
2014-08-22 02:11:00,59.0,53.8,30.01,East,100,8.0,8.0,83,0.00,,---,0.00,VWS V14.01,2014-08-22 09:11:00,
2014-08-22 02:16:00,58.9,53.8,30.01,ESE,105,4.0,8.0,83,0.00,,---,0.00,VWS V14.01,2014-08-22 09:16:00,
2014-08-22 02:21:00,58.9,54.1,30.01,East,94,5.0,7.0,84,0.00,,---,0.00,VWS V14.01,2014-08-22 09:21:00,
2014-08-22 02:26:00,58.8,54.0,30.01,East,92,6.0,7.0,84,0.00,,---,0.00,VWS V14.01,2014-08-22 09:26:00,
2014-08-22 02:31:00,58.7,53.9,30.01,East,94,6.0,7.0,84,0.00,,---,0.00,VWS V14.01,2014-08-22 09:31:00,
2014-08-22 02:36:00,58.6,53.8,30.01,East,91,5.0,6.0,84,0.00,,---,0.00,VWS V14.01,2014-08-22 09:36:00,
2014-08-22 02:41:00,58.5,53.7,30.01,East,93,4.0,6.0,84,0.00,,---,0.00,VWS V14.01,2014-08-22 09:41:00,
2014-08-22 02:46:00,58.5,53.7,30.01,East,93,11.0,11.0,84,0.00,,---,0.00,VWS V14.01,2014-08-22 09:46:00,
2014-08-22 02:51:00,58.5,53.4,30.01,East,88,6.0,12.0,83,0.00,,---,0.00,VWS V14.01,2014-08-22 09:51:00,
2014-08-22 02:56:00,58.4,53.6,30.01,East,94,8.0,12.0,84,0.00,,---,0.00,VWS V14.01,2014-08-22 09:56:00,